Time;durP1;ratioP1;P1;durP2;ratioP2;P2;SDS_P1;SDS_P2;PMS_P1;PMS_P2;Temp;Humidity;BMP_temperature;BMP_pressure;BME280_temperature;BME280_humidity;BME280_pressure;Samples;Min_cycle;Max_cycle;Signal;HPM_P1;HPM_P2
2023/06/12 00:01:43;;;;;;;2.55;1.50;;;;;;;15.93;58.57;100429.37;1668365;86;21405;-55
2023/06/12 00:04:49;;;;;;;3.55;1.60;;;;;;;15.94;58.63;100429.16;1669531;83;21378;-54
2023/06/12 00:07:58;;;;;;;2.75;1.60;;;;;;;15.93;58.58;100420.56;1668135;86;21211;-56
2023/06/12 00:11:12;;;;;;;3.83;1.60;;;;;;;15.90;58.54;100422.33;1642748;87;21355;-54
2023/06/12 00:14:13;;;;;;;3.33;1.60;;;;;;;15.85;58.53;100427.66;1667737;84;21902;-55
2023/06/12 00:17:20;;;;;;;3.77;1.57;;;;;;;15.78;58.55;100424.53;1643193;86;22120;-54
2023/06/12 00:20:27;;;;;;;2.95;1.40;;;;;;;15.74;58.63;100421.37;1642478;86;21422;-55
2023/06/12 00:23:33;;;;;;;4.80;1.72;;;;;;;15.63;58.56;100420.59;1642474;86;21390;-55
2023/06/12 00:26:42;;;;;;;3.58;1.50;;;;;;;15.54;58.59;100412.70;1642680;86;21406;-55
2023/06/12 00:29:47;;;;;;;3.47;1.60;;;;;;;15.45;58.68;100403.75;1668092;84;21389;-54
2023/06/12 00:32:55;;;;;;;6.10;1.60;;;;;;;15.42;58.80;100409.68;1642607;87;21403;-55
2023/06/12 00:36:00;;;;;;;6.00;1.30;;;;;;;15.38;58.84;100404.75;1642501;87;21558;-55
2023/06/12 00:39:06;;;;;;;2.15;1.40;;;;;;;15.32;58.89;100396.77;1667988;84;21384;-56
2023/06/12 00:42:13;;;;;;;4.90;1.65;;;;;;;15.29;58.96;100410.11;1668227;84;21460;-55
2023/06/12 00:45:22;;;;;;;4.70;1.50;;;;;;;15.26;59.01;100391.21;1668201;86;21377;-55
2023/06/12 00:48:30;;;;;;;1.70;1.32;;;;;;;15.23;59.00;100401.28;1642675;87;21399;-57
2023/06/12 00:51:36;;;;;;;2.87;1.37;;;;;;;15.20;59.04;100403.94;1668040;86;21354;-56
2023/06/12 00:54:43;;;;;;;2.85;1.50;;;;;;;15.19;59.07;100409.11;1668123;86;21389;-55
2023/06/12 00:57:53;;;;;;;2.20;1.35;;;;;;;15.13;59.01;100415.45;1642502;87;21399;-53
2023/06/12 01:01:01;;;;;;;4.20;1.60;;;;;;;15.10;59.01;100414.48;1668221;84;21357;-55
2023/06/12 01:04:09;;;;;;;3.67;1.45;;;;;;;15.06;59.06;100417.34;1668234;86;21381;-54
2023/06/12 01:07:48;;;;;;;2.47;1.40;;;;;;;14.99;59.00;100409.54;1671084;84;21307;-55
2023/06/12 01:10:58;;;;;;;3.52;1.45;;;;;;;14.95;59.10;100417.91;1672293;85;21977;-54
2023/06/12 01:14:05;;;;;;;10.88;1.72;;;;;;;14.92;59.18;100401.78;1672791;86;21942;-54
2023/06/12 01:17:12;;;;;;;5.28;1.50;;;;;;;14.87;59.18;100407.05;1672784;84;21389;-55
2023/06/12 01:20:21;;;;;;;3.25;1.60;;;;;;;14.83;59.28;100408.48;1672756;84;21393;-54
2023/06/12 01:23:44;;;;;;;4.87;1.75;;;;;;;14.83;59.36;100410.73;1672717;84;21365;-54
2023/06/12 01:27:17;;;;;;;2.30;1.50;;;;;;;14.82;59.35;100419.20;1650933;85;21388;-55
2023/06/12 01:30:46;;;;;;;3.83;1.80;;;;;;;14.71;59.21;100433.54;1659582;86;21433;-53
2023/06/12 01:34:02;;;;;;;6.95;1.77;;;;;;;14.48;59.17;100431.55;1672610;86;21897;-54
2023/06/12 01:37:13;;;;;;;5.75;1.77;;;;;;;14.23;59.29;100415.95;1672802;85;21361;-55
2023/06/12 01:40:19;;;;;;;2.80;1.50;;;;;;;14.08;59.50;100422.59;1646636;86;21232;-55
2023/06/12 01:43:25;;;;;;;3.17;1.77;;;;;;;13.99;59.70;100420.48;1646241;87;21247;-56
2023/06/12 01:46:32;;;;;;;4.10;1.80;;;;;;;13.87;59.74;100419.84;1672341;86;21357;-54
2023/06/12 01:49:37;;;;;;;4.35;1.50;;;;;;;13.74;59.81;100424.69;1672706;86;21376;-55
2023/06/12 01:52:44;;;;;;;2.70;1.90;;;;;;;13.58;59.96;100428.18;1672737;86;21388;-54
2023/06/12 01:55:53;;;;;;;3.15;1.80;;;;;;;13.50;60.24;100427.27;1646223;86;21750;-54
2023/06/12 01:58:59;;;;;;;3.55;2.25;;;;;;;13.43;60.35;100433.71;1672829;84;21376;-54
2023/06/12 02:02:06;;;;;;;4.92;1.90;;;;;;;13.34;60.53;100433.50;1646483;86;21761;-53
2023/06/12 02:05:13;;;;;;;2.80;2.15;;;;;;;13.30;60.73;100438.53;1646186;87;21236;-53
2023/06/12 02:08:19;;;;;;;4.95;1.77;;;;;;;13.28;60.87;100432.91;1645095;84;21478;-54
2023/06/12 02:11:25;;;;;;;8.03;2.20;;;;;;;13.18;60.93;100434.58;1667978;86;21757;-55
2023/06/12 02:14:31;;;;;;;2.65;1.45;;;;;;;13.12;61.10;100431.22;1668159;86;21517;-54
2023/06/12 02:17:38;;;;;;;2.47;1.75;;;;;;;13.08;61.30;100424.38;1668139;86;21929;-56
2023/06/12 02:20:45;;;;;;;4.92;1.90;;;;;;;13.05;61.49;100428.89;1668086;84;21361;-54
2023/06/12 02:23:52;;;;;;;7.78;3.75;;;;;;;13.08;61.70;100426.30;1642641;87;21362;-54
2023/06/12 02:26:57;;;;;;;5.83;1.95;;;;;;;13.04;61.79;100429.95;1642438;87;21375;-55
2023/06/12 02:30:03;;;;;;;3.20;2.45;;;;;;;13.03;61.91;100434.27;1668117;84;21917;-55
2023/06/12 02:33:12;;;;;;;2.83;1.80;;;;;;;13.02;62.02;100438.89;1668090;84;21238;-53
2023/06/12 02:36:18;;;;;;;3.25;1.90;;;;;;;12.97;62.12;100440.48;1668113;86;21357;-56
2023/06/12 02:39:25;;;;;;;2.90;1.70;;;;;;;12.96;62.28;100428.64;1668136;86;21199;-57
2023/06/12 02:42:30;;;;;;;3.80;1.87;;;;;;;12.98;62.46;100426.56;1642622;87;21413;-55
2023/06/12 02:45:38;;;;;;;3.12;1.90;;;;;;;13.03;62.62;100428.22;1669236;85;21468;-54
2023/06/12 02:48:45;;;;;;;1.72;1.52;;;;;;;13.06;62.66;100414.64;1668125;86;21409;-55
2023/06/12 02:51:52;;;;;;;3.17;1.67;;;;;;;13.04;62.75;100418.09;1637491;87;21400;-55
2023/06/12 02:54:59;;;;;;;3.15;1.45;;;;;;;13.04;62.82;100423.08;1682369;85;21425;-55
2023/06/12 02:58:06;;;;;;;3.27;1.95;;;;;;;13.04;62.88;100417.58;1682737;84;21417;-56
2023/06/12 03:01:12;;;;;;;2.77;1.40;;;;;;;13.03;62.96;100421.34;1682015;85;21903;-56
2023/06/12 03:04:20;;;;;;;2.75;1.82;;;;;;;13.01;63.09;100419.34;1682176;85;21915;-56
2023/06/12 03:07:28;;;;;;;3.37;1.95;;;;;;;13.04;63.29;100424.45;1682827;84;21856;-55
2023/06/12 03:10:34;;;;;;;2.60;1.70;;;;;;;13.07;63.36;100414.45;1700806;84;21241;-53
2023/06/12 03:13:40;;;;;;;2.20;1.50;;;;;;;13.07;63.39;100415.82;1700414;84;21275;-54
2023/06/12 03:16:48;;;;;;;3.42;1.90;;;;;;;13.08;63.50;100423.55;1700379;84;22050;-52
2023/06/12 03:19:54;;;;;;;3.47;1.65;;;;;;;13.08;63.64;100428.51;1700420;84;21283;-52
2023/06/12 03:23:01;;;;;;;2.83;1.42;;;;;;;13.15;63.78;100425.34;1700422;84;21231;-53
2023/06/12 03:26:06;;;;;;;3.75;1.60;;;;;;;13.15;63.77;100428.60;1700428;84;21248;-53
2023/06/12 03:29:13;;;;;;;2.90;1.50;;;;;;;13.17;63.86;100431.51;1700836;84;21267;-52
2023/06/12 03:32:19;;;;;;;4.05;1.40;;;;;;;13.21;63.99;100431.44;1700880;84;21224;-52
2023/06/12 03:35:26;;;;;;;2.45;1.40;;;;;;;13.25;64.09;100432.78;1700867;84;21224;-53
2023/06/12 03:38:33;;;;;;;2.62;1.35;;;;;;;13.32;64.18;100432.32;1700911;84;21192;-54
2023/06/12 03:41:42;;;;;;;5.97;2.08;;;;;;;13.34;64.15;100438.48;1700876;84;21780;-53
2023/06/12 03:44:50;;;;;;;1.87;1.45;;;;;;;13.38;64.25;100434.84;1700954;84;21227;-53
2023/06/12 03:47:56;;;;;;;2.45;1.65;;;;;;;13.42;64.31;100434.26;1700874;84;21236;-53
2023/06/12 03:51:02;;;;;;;2.08;1.42;;;;;;;13.46;64.38;100423.73;1680208;84;21223;-52
2023/06/12 03:54:08;;;;;;;2.02;1.40;;;;;;;13.51;64.42;100442.72;1700878;84;21220;-51
2023/06/12 03:57:13;;;;;;;1.85;1.27;;;;;;;13.51;64.46;100437.21;1700889;84;21748;-52
2023/06/12 04:00:20;;;;;;;6.12;1.85;;;;;;;13.53;64.53;100446.13;1700896;84;21224;-53
2023/06/12 04:03:26;;;;;;;1.57;1.25;;;;;;;13.52;64.50;100438.08;1700837;84;21279;-54
2023/06/12 04:06:40;;;;;;;3.65;1.37;;;;;;;13.51;64.60;100442.72;1700905;84;21211;-55
2023/06/12 04:09:44;;;;;;;3.10;1.47;;;;;;;13.53;64.69;100446.13;1701998;84;21223;-54
2023/06/12 04:12:51;;;;;;;1.70;1.20;;;;;;;13.57;64.83;100454.00;1707901;84;21327;-54
2023/06/12 04:16:00;;;;;;;2.27;1.40;;;;;;;13.62;64.85;100454.27;1708017;84;21219;-54
2023/06/12 04:19:08;;;;;;;2.77;1.50;;;;;;;13.62;64.84;100446.02;1707198;84;21231;-55
2023/06/12 04:22:15;;;;;;;2.62;1.30;;;;;;;13.59;64.88;100456.87;1707916;84;21271;-55
2023/06/12 04:25:20;;;;;;;2.10;1.35;;;;;;;13.60;64.91;100453.09;1707856;84;21216;-53
2023/06/12 04:28:28;;;;;;;1.75;1.22;;;;;;;13.62;65.00;100454.27;1707766;83;21737;-52
2023/06/12 04:31:36;;;;;;;2.90;1.25;;;;;;;13.59;64.96;100440.91;1707927;84;21215;-54
2023/06/12 04:34:45;;;;;;;2.58;1.50;;;;;;;13.57;65.03;100436.11;1707687;83;21200;-54
2023/06/12 04:37:52;;;;;;;1.90;1.22;;;;;;;13.58;65.09;100431.80;1707847;84;21401;-53
2023/06/12 04:41:02;;;;;;;2.45;1.25;;;;;;;13.63;65.22;100439.46;1708548;82;21204;-53
2023/06/12 04:44:06;;;;;;;4.12;1.67;;;;;;;13.70;65.26;100439.03;1709292;84;21282;-51
2023/06/12 04:47:20;;;;;;;4.67;1.37;;;;;;;13.71;65.25;100435.22;1753110;82;21338;-53
2023/06/12 04:50:23;;;;;;;1.30;0.98;;;;;;;13.71;65.29;100437.45;1691041;83;21211;-54
2023/06/12 04:53:33;;;;;;;2.37;1.30;;;;;;;13.78;65.43;100427.90;1694042;84;21279;-53
2023/06/12 04:56:40;;;;;;;3.02;1.42;;;;;;;13.87;65.49;100436.34;1707405;83;21362;-52
2023/06/12 04:59:45;;;;;;;13.68;2.85;;;;;;;13.89;65.34;100435.64;1698039;84;21228;-52
2023/06/12 05:02:52;;;;;;;4.37;1.50;;;;;;;13.90;65.39;100427.70;1688476;83;21831;-53
2023/06/12 05:06:00;;;;;;;3.05;1.90;;;;;;;13.87;65.36;100449.59;1726233;81;21783;-54
2023/06/12 05:09:13;;;;;;;2.45;1.57;;;;;;;13.84;65.35;100435.37;1733302;82;21223;-52
2023/06/12 05:12:20;;;;;;;2.50;1.67;;;;;;;13.90;65.55;100435.95;1737237;82;21223;-54
2023/06/12 05:15:27;;;;;;;3.77;1.80;;;;;;;13.92;65.58;100442.12;1728411;82;21227;-53
2023/06/12 05:18:34;;;;;;;2.42;2.00;;;;;;;13.95;65.54;100443.11;1733651;82;21202;-55
2023/06/12 05:21:41;;;;;;;4.47;2.20;;;;;;;13.90;65.62;100439.57;1748114;81;21870;-54
2023/06/12 05:24:48;;;;;;;6.12;2.15;;;;;;;13.96;65.74;100445.66;1732175;81;21235;-52
2023/06/12 05:27:55;;;;;;;3.22;2.30;;;;;;;13.99;65.73;100447.16;1724343;82;21263;-51
2023/06/12 05:31:01;;;;;;;8.10;2.45;;;;;;;14.04;65.81;100448.80;1722868;82;21220;-52
2023/06/12 05:34:09;;;;;;;5.78;2.40;;;;;;;14.07;65.84;100456.66;1745593;82;21756;-53
2023/06/12 05:37:13;;;;;;;3.95;2.58;;;;;;;14.08;65.81;100455.63;1740382;81;21212;-54
2023/06/12 05:40:20;;;;;;;4.67;2.60;;;;;;;14.06;65.89;100459.09;1751472;81;21581;-54
2023/06/12 05:43:29;;;;;;;5.12;3.33;;;;;;;14.06;65.94;100460.47;1734491;81;21227;-53
2023/06/12 05:46:39;;;;;;;4.00;2.40;;;;;;;14.09;66.04;100456.81;1747283;82;21553;-52
2023/06/12 05:49:46;;;;;;;4.80;2.40;;;;;;;14.09;66.02;100454.06;1739602;82;21417;-51
2023/06/12 05:52:53;;;;;;;3.87;2.12;;;;;;;14.07;66.03;100461.65;1708592;84;21270;-53
2023/06/12 05:55:59;;;;;;;3.65;2.42;;;;;;;14.01;66.03;100460.20;1708780;84;21216;-53
2023/06/12 05:59:06;;;;;;;4.78;3.10;;;;;;;14.00;66.16;100461.27;1712165;82;21716;-52
2023/06/12 06:02:14;;;;;;;6.50;3.15;;;;;;;13.97;66.20;100461.66;1743911;82;21343;-53
2023/06/12 06:05:22;;;;;;;3.05;2.25;;;;;;;13.96;66.29;100462.17;1743312;81;21370;-54
2023/06/12 06:08:32;;;;;;;3.25;2.22;;;;;;;13.94;66.37;100465.64;1739933;81;21416;-52
2023/06/12 06:11:40;;;;;;;3.50;2.12;;;;;;;13.92;66.43;100461.39;1736990;81;21377;-53
2023/06/12 06:14:49;;;;;;;3.12;2.30;;;;;;;13.88;66.49;100460.06;1736561;82;21494;-53
2023/06/12 06:17:55;;;;;;;3.80;2.27;;;;;;;13.89;66.54;100461.78;1736705;82;21874;-52
2023/06/12 06:20:55;;;;;;;3.33;2.30;;;;;;;13.83;66.52;100458.41;1736174;82;21772;-52
2023/06/12 06:24:01;;;;;;;4.75;2.12;;;;;;;13.81;66.60;100452.27;1706740;84;21393;-52
2023/06/12 06:27:09;;;;;;;3.55;2.45;;;;;;;13.77;66.62;100458.68;1706703;84;21377;-53
2023/06/12 06:30:16;;;;;;;4.30;2.10;;;;;;;13.72;66.72;100458.92;1701362;83;21381;-50
2023/06/12 06:33:23;;;;;;;3.12;2.00;;;;;;;13.75;66.91;100458.56;1707270;84;21389;-50
2023/06/12 06:36:30;;;;;;;2.67;2.15;;;;;;;13.84;67.14;100465.13;1707080;83;21882;-52
2023/06/12 06:39:38;;;;;;;2.95;2.30;;;;;;;13.87;67.00;100456.98;1707463;84;21867;-53
2023/06/12 06:42:44;;;;;;;4.33;2.80;;;;;;;13.87;67.04;100458.36;1709729;82;21377;-52
2023/06/12 06:45:57;;;;;;;3.00;2.10;;;;;;;13.92;67.20;100455.89;1737835;82;21332;-51
2023/06/12 06:49:04;;;;;;;2.60;1.82;;;;;;;13.98;67.23;100464.22;1736161;82;21425;-50
2023/06/12 06:52:12;;;;;;;3.77;2.35;;;;;;;14.02;67.24;100467.41;1741023;82;21208;-52
2023/06/12 06:55:18;;;;;;;2.83;2.08;;;;;;;14.09;67.31;100466.96;1741160;82;21271;-50
2023/06/12 06:58:25;;;;;;;4.62;2.77;;;;;;;14.17;67.37;100462.70;1723843;82;21871;-51
2023/06/12 07:01:34;;;;;;;3.52;2.25;;;;;;;14.13;67.18;100466.37;1698073;84;21228;-52
2023/06/12 07:04:41;;;;;;;2.85;2.12;;;;;;;14.07;67.25;100464.41;1697494;84;21245;-52
2023/06/12 07:07:47;;;;;;;3.08;2.20;;;;;;;14.05;67.30;100453.28;1697569;84;21235;-53
2023/06/12 07:10:57;;;;;;;3.08;2.27;;;;;;;14.02;67.40;100460.52;1697413;83;21324;-52
2023/06/12 07:14:04;;;;;;;2.67;2.30;;;;;;;13.97;67.48;100461.66;1733324;82;21354;-52
2023/06/12 07:17:11;;;;;;;3.12;2.45;;;;;;;13.99;67.63;100466.42;1736280;82;21377;-50
2023/06/12 07:20:18;;;;;;;4.08;2.80;;;;;;;14.01;67.64;100462.95;1716779;82;21907;-50
2023/06/12 07:23:25;;;;;;;5.85;2.87;;;;;;;13.95;67.63;100453.59;1736103;82;21378;-53
2023/06/12 07:26:32;;;;;;;4.70;2.75;;;;;;;13.97;67.80;100455.61;1736361;82;21347;-53
2023/06/12 07:29:39;;;;;;;3.90;2.62;;;;;;;14.07;68.01;100464.92;1736604;82;21867;-51
2023/06/12 07:33:00;;;;;;;8.13;2.92;;;;;;;14.15;68.10;100466.16;1736680;82;21354;-51
2023/06/12 07:36:09;;;;;;;3.37;2.77;;;;;;;14.25;68.16;100465.36;1736293;82;21251;-50
2023/06/12 07:39:22;;;;;;;3.47;2.70;;;;;;;14.32;68.27;100461.61;1723670;83;21351;-49
2023/06/12 07:42:44;;;;;;;4.22;2.62;;;;;;;14.38;68.23;100467.69;1727256;83;21460;-51
2023/06/12 07:45:54;;;;;;;4.87;2.92;;;;;;;14.39;68.15;100463.91;1728876;82;21188;-50
2023/06/12 07:49:15;;;;;;;11.83;7.58;;;;;;;14.43;68.22;100462.45;1678426;85;21231;-50
2023/06/12 07:52:31;;;;;;;8.88;5.03;;;;;;;14.44;68.24;100457.80;1736621;82;21368;-51
2023/06/12 07:55:40;;;;;;;5.33;3.70;;;;;;;14.50;68.36;100463.88;1736086;82;21358;-51
2023/06/12 07:58:47;;;;;;;8.08;5.22;;;;;;;14.55;68.41;100470.52;1736104;82;21227;-52
2023/06/12 08:02:06;;;;;;;18.85;8.35;;;;;;;14.60;68.39;100483.14;1702366;84;22064;-51
2023/06/12 08:05:21;;;;;;;11.83;6.85;;;;;;;14.59;68.32;100471.80;1738996;82;21306;-51
2023/06/12 08:08:53;;;;;;;5.05;3.25;;;;;;;14.61;68.39;100475.73;1707174;84;21767;-51
2023/06/12 08:12:01;;;;;;;14.18;6.15;;;;;;;14.63;68.42;100472.27;1670460;85;21378;-51
2023/06/12 08:15:09;;;;;;;7.50;4.20;;;;;;;14.67;68.56;100474.93;1706849;82;21911;-51
2023/06/12 08:18:22;;;;;;;10.53;5.40;;;;;;;14.68;68.52;100473.35;1739898;81;21212;-51
2023/06/12 08:21:34;;;;;;;6.53;3.65;;;;;;;14.70;68.52;100474.53;1732088;82;22049;-52
2023/06/12 08:24:49;;;;;;;3.47;2.90;;;;;;;14.71;68.61;100476.25;1731825;81;21228;-51
2023/06/12 08:28:01;;;;;;;4.92;2.47;;;;;;;14.72;68.60;100477.43;1746719;81;21610;-48
2023/06/12 08:31:26;;;;;;;5.47;2.80;;;;;;;14.75;68.70;100470.14;1749943;81;21769;-52
2023/06/12 08:34:39;;;;;;;4.30;2.75;;;;;;;14.72;68.67;100492.58;1720312;82;21384;-51
2023/06/12 08:38:02;;;;;;;4.97;3.30;;;;;;;14.72;68.78;100488.97;1729261;81;21725;-52
2023/06/12 08:41:17;;;;;;;4.20;2.62;;;;;;;14.77;68.89;100485.95;1730289;82;21210;-50
2023/06/12 08:44:41;;;;;;;8.13;2.87;;;;;;;14.80;68.83;100476.42;1715041;82;21208;-49
2023/06/12 08:47:57;;;;;;;3.80;2.72;;;;;;;14.79;68.89;100482.99;1716279;82;21278;-54
2023/06/12 08:51:04;;;;;;;4.22;2.77;;;;;;;14.80;68.87;100480.04;1734316;82;21211;-52
2023/06/12 08:54:17;;;;;;;5.40;2.90;;;;;;;14.80;68.91;100487.44;1705422;84;21239;-53
2023/06/12 08:57:30;;;;;;;4.62;2.83;;;;;;;14.73;68.88;100479.12;1706559;83;21223;-55
2023/06/12 09:00:49;;;;;;;4.12;2.85;;;;;;;14.71;68.94;100485.34;1708001;82;21247;-56
2023/06/12 09:04:09;;;;;;;6.12;3.45;;;;;;;14.74;69.11;100481.36;1735868;82;21279;-54
2023/06/12 09:07:18;;;;;;;9.95;3.25;;;;;;;14.77;69.16;100479.58;1718175;82;21215;-56
2023/06/12 09:10:23;;;;;;;3.50;3.00;;;;;;;14.79;69.13;100487.13;1734490;82;21654;-55
2023/06/12 09:13:31;;;;;;;4.60;2.90;;;;;;;14.74;69.13;100482.73;1734834;82;21833;-54
2023/06/12 09:16:38;;;;;;;6.28;3.15;;;;;;;14.77;69.29;100479.58;1730582;82;22049;-54
2023/06/12 09:19:50;;;;;;;4.10;2.65;;;;;;;14.83;69.33;100478.25;1736502;82;21234;-54
2023/06/12 09:23:07;;;;;;;3.52;2.90;;;;;;;14.85;69.35;100479.43;1726619;82;21762;-55
2023/06/12 09:26:22;;;;;;;5.97;3.35;;;;;;;14.87;69.34;100485.05;1699154;84;21232;-54
2023/06/12 09:29:42;;;;;;;4.30;3.20;;;;;;;14.90;69.35;100483.82;1699497;84;21303;-55
2023/06/12 09:32:49;;;;;;;4.17;3.33;;;;;;;14.90;69.40;100474.17;1699326;84;21231;-55
2023/06/12 09:36:00;;;;;;;3.83;2.85;;;;;;;14.94;69.54;100479.59;1700053;84;21264;-53
2023/06/12 09:39:15;;;;;;;7.58;3.67;;;;;;;14.98;69.54;100480.91;1698563;84;21293;-55
2023/06/12 09:42:25;;;;;;;4.15;3.10;;;;;;;14.97;69.58;100480.05;1681559;84;21724;-55
2023/06/12 09:45:32;;;;;;;4.33;3.22;;;;;;;15.05;69.80;100476.82;1675434;85;21366;-54
2023/06/12 09:48:45;;;;;;;5.08;3.30;;;;;;;15.15;69.88;100473.15;1681419;84;21350;-54
2023/06/12 09:51:56;;;;;;;6.15;3.47;;;;;;;15.24;69.92;100482.98;1704794;83;21231;-55
2023/06/12 09:55:04;;;;;;;4.85;3.15;;;;;;;15.33;69.97;100481.75;1703658;83;21271;-57
2023/06/12 09:58:10;;;;;;;6.58;3.50;;;;;;;15.44;70.02;100477.93;1736890;82;21310;-54
2023/06/12 10:01:19;;;;;;;6.03;3.37;;;;;;;15.54;69.99;100477.00;1741719;81;21209;-54
2023/06/12 10:04:34;;;;;;;5.37;4.10;;;;;;;15.57;69.88;100473.83;1751693;81;21208;-55
2023/06/12 10:07:51;;;;;;;6.37;3.70;;;;;;;15.61;69.94;100468.23;1736868;82;21231;-55
2023/06/12 10:10:56;;;;;;;5.58;4.50;;;;;;;15.70;69.92;100476.64;1740891;82;21203;-56
2023/06/12 10:14:02;;;;;;;4.62;4.22;;;;;;;15.73;69.79;100469.33;1734722;81;21203;-55
2023/06/12 10:17:10;;;;;;;5.62;4.17;;;;;;;15.76;69.88;100471.67;1738191;81;21275;-56
2023/06/12 10:20:19;;;;;;;5.90;3.75;;;;;;;15.77;69.86;100488.58;1747298;82;21341;-55
2023/06/12 10:23:24;;;;;;;5.20;4.45;;;;;;;15.79;69.82;100483.67;1681044;84;21216;-56
2023/06/12 10:26:32;;;;;;;6.50;3.50;;;;;;;15.76;69.79;100470.84;1668848;85;21227;-55
2023/06/12 10:29:40;;;;;;;4.53;4.10;;;;;;;15.79;69.82;100474.02;1672505;84;21245;-54
2023/06/12 10:32:48;;;;;;;6.62;4.60;;;;;;;15.72;69.68;100481.44;1671820;86;21226;-56
2023/06/12 10:35:55;;;;;;;9.53;4.30;;;;;;;15.66;69.76;100473.99;1662293;85;21235;-57
2023/06/12 10:39:11;;;;;;;5.90;3.85;;;;;;;15.66;69.79;100482.27;1666902;83;21213;-56
2023/06/12 10:42:18;;;;;;;6.05;4.53;;;;;;;15.67;69.86;100482.58;1682178;85;21284;-57
2023/06/12 10:45:38;;;;;;;5.33;4.37;;;;;;;15.70;69.93;100481.30;1688788;84;21221;-57
2023/06/12 10:48:54;;;;;;;5.40;4.35;;;;;;;15.69;69.88;100483.75;1683899;83;21241;-57
2023/06/12 10:52:01;;;;;;;4.97;3.60;;;;;;;15.68;69.89;100477.37;1659566;84;21259;-56
2023/06/12 10:55:27;;;;;;;6.22;4.30;;;;;;;15.72;70.04;100483.34;1704515;83;21565;-54
2023/06/12 10:58:36;;;;;;;4.67;4.22;;;;;;;15.78;70.06;100477.84;1653975;85;21608;-53
2023/06/12 11:01:46;;;;;;;5.80;4.35;;;;;;;15.86;70.04;100488.70;1658132;84;21280;-55
2023/06/12 11:04:55;;;;;;;9.10;4.53;;;;;;;15.87;69.97;100489.02;1692257;83;21263;-53
2023/06/12 11:08:08;;;;;;;7.25;4.12;;;;;;;15.85;69.89;100478.73;1640209;85;21825;-51
2023/06/12 11:11:17;;;;;;;7.40;4.30;;;;;;;15.83;69.91;100482.22;1672628;84;21232;-51
2023/06/12 11:14:25;;;;;;;5.92;4.22;;;;;;;15.81;69.82;100480.19;1697178;83;21234;-52
2023/06/12 11:17:31;;;;;;;5.78;4.22;;;;;;;15.83;69.89;100478.08;1669204;83;21308;-52
2023/06/12 11:20:38;;;;;;;6.40;4.58;;;;;;;15.90;69.97;100478.94;1670981;84;21222;-51
2023/06/12 11:23:49;;;;;;;7.97;4.90;;;;;;;15.91;69.93;100483.41;1663798;84;21198;-54
2023/06/12 11:27:00;;;;;;;5.30;4.53;;;;;;;15.93;69.89;100482.69;1650613;87;21728;-54
2023/06/12 11:30:21;;;;;;;6.08;5.15;;;;;;;15.93;69.82;100483.20;1634723;86;21312;-52
2023/06/12 11:33:29;;;;;;;7.92;5.53;;;;;;;15.90;69.80;100494.13;1679687;83;21225;-53
2023/06/12 11:36:34;;;;;;;9.88;6.78;;;;;;;15.96;69.91;100491.94;1686959;83;21220;-56
2023/06/12 11:39:42;;;;;;;6.87;5.75;;;;;;;16.01;69.88;100488.02;1668162;83;21831;-53
2023/06/12 11:42:50;;;;;;;7.53;6.20;;;;;;;15.99;69.68;100489.27;1685540;84;21582;-52
2023/06/12 11:45:56;;;;;;;6.87;6.17;;;;;;;15.91;69.63;100494.46;1703088;84;21267;-55
2023/06/12 11:49:09;;;;;;;8.48;7.60;;;;;;;15.88;69.73;100489.36;1671814;85;21253;-53
2023/06/12 11:52:17;;;;;;;10.43;7.70;;;;;;;15.92;69.82;100487.87;1678034;85;21779;-53
2023/06/12 11:55:23;;;;;;;8.25;7.08;;;;;;;15.92;69.73;100493.94;1678992;84;21227;-52
2023/06/12 11:58:45;;;;;;;12.43;7.55;;;;;;;15.83;69.58;100496.55;1630894;87;21240;-53
2023/06/12 12:01:51;;;;;;;9.03;7.40;;;;;;;15.77;69.65;100502.38;1617117;87;21233;-53
2023/06/12 12:04:58;;;;;;;13.08;8.10;;;;;;;15.75;69.71;100512.77;1602631;89;21280;-52
2023/06/12 12:08:06;;;;;;;15.43;7.30;;;;;;;15.74;69.74;100509.70;1664783;85;21341;-53
2023/06/12 12:11:26;;;;;;;7.42;6.47;;;;;;;15.77;69.83;100514.80;1673741;84;21220;-52
2023/06/12 12:14:32;;;;;;;10.48;6.80;;;;;;;15.81;69.87;100511.11;1675118;83;21239;-51
2023/06/12 12:17:43;;;;;;;7.50;6.53;;;;;;;15.88;69.89;100519.73;1650134;84;21797;-51
2023/06/12 12:20:53;;;;;;;8.93;6.65;;;;;;;15.89;69.76;100509.52;1735830;81;21230;-52
2023/06/12 12:24:06;;;;;;;8.80;7.12;;;;;;;15.85;69.70;100513.24;1704131;84;21390;-53
2023/06/12 12:27:13;;;;;;;10.98;7.90;;;;;;;15.85;69.79;100514.63;1723965;82;21867;-52
2023/06/12 12:30:21;;;;;;;9.58;8.68;;;;;;;15.87;69.78;100516.62;1697659;82;21255;-55
2023/06/12 12:33:28;;;;;;;10.03;9.03;;;;;;;15.86;69.72;100512.69;1709185;81;21290;-52
2023/06/12 12:36:42;;;;;;;11.83;8.58;;;;;;;15.86;69.72;100514.07;1727038;81;21256;-55
2023/06/12 12:39:49;;;;;;;11.63;9.50;;;;;;;15.85;69.78;100511.00;1730854;82;21772;-54
2023/06/12 12:42:56;;;;;;;10.68;9.58;;;;;;;15.87;69.81;100507.52;1705966;83;21193;-53
2023/06/12 12:45:59;;;;;;;12.93;10.28;;;;;;;15.83;69.76;100509.83;1722596;82;21216;-53
2023/06/12 12:48:52;;;;;;;10.25;9.13;;;;;;;15.84;69.73;100510.69;1723407;82;21246;-51
2023/06/12 12:52:01;;;;;;;9.88;8.88;;;;;;;15.81;69.71;100516.08;1737968;82;21558;-51
2023/06/12 12:55:08;;;;;;;11.03;8.43;;;;;;;15.84;69.86;100508.76;1703007;83;21219;-52
2023/06/12 12:58:16;;;;;;;9.33;8.05;;;;;;;15.88;69.87;100505.06;1702807;84;21240;-54
2023/06/12 13:01:21;;;;;;;10.32;8.95;;;;;;;15.95;69.90;100498.49;1703864;84;21235;-53
2023/06/12 13:04:27;;;;;;;10.28;8.50;;;;;;;15.97;69.73;100499.14;1713958;83;21839;-50
2023/06/12 13:07:33;;;;;;;11.20;8.93;;;;;;;15.90;69.59;100508.48;1731791;81;21760;-53
2023/06/12 13:10:38;;;;;;;10.00;9.00;;;;;;;15.82;69.63;100503.13;1718522;82;21207;-53
2023/06/12 13:13:43;;;;;;;11.05;9.95;;;;;;;15.83;69.83;100516.73;1717268;82;21220;-54
2023/06/12 13:16:52;;;;;;;11.50;10.13;;;;;;;15.82;69.81;100506.76;1737537;81;21263;-52
2023/06/12 13:19:58;;;;;;;11.38;9.95;;;;;;;15.82;69.88;100516.94;1737779;81;21207;-51
2023/06/12 13:23:07;;;;;;;10.35;9.10;;;;;;;15.84;69.89;100517.04;1728601;82;21241;-51
2023/06/12 13:26:14;;;;;;;11.83;8.88;;;;;;;15.84;69.86;100520.35;1731036;81;21259;-55
2023/06/12 13:29:22;;;;;;;13.15;9.95;;;;;;;15.80;69.81;100518.53;1733906;82;21235;-53
2023/06/12 13:32:27;;;;;;;10.30;9.20;;;;;;;15.81;69.91;100520.77;1738472;82;21211;-53
2023/06/12 13:35:27;;;;;;;9.80;8.53;;;;;;;15.79;69.88;100526.47;1695871;82;21274;-52
2023/06/12 13:38:35;;;;;;;11.80;9.30;;;;;;;15.82;70.00;100530.74;1731067;82;21247;-54
2023/06/12 13:41:40;;;;;;;10.68;9.00;;;;;;;15.77;69.90;100524.46;1734680;82;21287;-52
2023/06/12 13:44:48;;;;;;;10.95;8.95;;;;;;;15.78;69.96;100528.05;1741395;81;21374;-54
2023/06/12 13:47:55;;;;;;;10.00;8.48;;;;;;;15.73;69.92;100533.36;1724853;82;21406;-53
2023/06/12 13:51:01;;;;;;;9.95;8.20;;;;;;;15.76;70.07;100533.78;1732593;81;22084;-52
2023/06/12 13:54:09;;;;;;;12.50;9.93;;;;;;;15.76;70.03;100530.19;1733618;81;21282;-53
2023/06/12 13:57:15;;;;;;;9.75;8.73;;;;;;;15.77;70.08;100538.27;1730103;80;22042;-54
2023/06/12 14:00:21;;;;;;;9.63;8.28;;;;;;;15.80;70.05;100536.98;1732019;81;21359;-53
2023/06/12 14:03:28;;;;;;;9.10;8.15;;;;;;;15.82;70.09;100535.74;1704470;84;21208;-55
2023/06/12 14:06:35;;;;;;;11.80;8.25;;;;;;;15.83;70.09;100537.95;1721625;82;21204;-54
2023/06/12 14:09:42;;;;;;;12.13;8.25;;;;;;;15.84;70.04;100540.50;1735798;82;21445;-52
2023/06/12 14:12:50;;;;;;;9.53;7.75;;;;;;;15.79;69.94;100536.13;1735725;82;21937;-55
2023/06/12 14:16:00;;;;;;;10.98;8.83;;;;;;;15.76;70.02;100548.96;1735978;82;21382;-53
2023/06/12 14:19:07;;;;;;;10.25;9.25;;;;;;;15.71;69.96;100532.19;1735993;82;21429;-53
2023/06/12 14:22:15;;;;;;;12.63;8.60;;;;;;;15.67;70.01;100541.06;1736106;81;21246;-56
2023/06/12 14:25:22;;;;;;;13.13;9.05;;;;;;;15.67;70.13;100541.92;1737666;82;21456;-53
2023/06/12 14:28:28;;;;;;;13.22;9.25;;;;;;;15.67;70.12;100540.55;1738120;82;21227;-55
2023/06/12 14:31:34;;;;;;;10.68;9.58;;;;;;;15.68;70.17;100543.61;1726019;81;21193;-52
2023/06/12 14:34:39;;;;;;;11.78;8.95;;;;;;;15.67;70.08;100537.78;1737494;82;21697;-52
2023/06/12 14:37:45;;;;;;;11.90;8.18;;;;;;;15.65;70.08;100537.67;1737559;82;21791;-54